Terminal Aerodrome Forecast
Issued by NWS Wilmington, OH

Current Version | Previous Version | Graphics & Text | Print | Product List | Glossary On
Versions: 1 2 3 4 5 6 7 8 9 10 11 12 13 14 15 16 17 18 19 20 21 22 23 24
709
FTUS41 KILN 221136
TAFILN
TAF
KILN 221136Z 2212/2312 20007KT 3SM BR VCSH OVC004
      TEMPO 2212/2214 1 1/2SM -DZ OVC011
     FM221400 20006KT 5SM BR OVC009
     FM221600 21007KT P6SM OVC015
     FM222000 20007KT P6SM BKN025
     FM230300 20006KT 4SM BR OVC011=

USA.gov is the U.S. government's official web portal to all federal, state and local government web resources and services.